sensor_id;sensor_type;location;lat;lon;timestamp;temperature;humidity
10566;DHT22;5331;48.148;16.326;2023-02-02T00:00:11;3.20;1.00
10566;DHT22;5331;48.148;16.326;2023-02-02T00:02:38;3.00;1.00
10566;DHT22;5331;48.148;16.326;2023-02-02T00:05:08;2.80;1.00
10566;DHT22;5331;48.148;16.326;2023-02-02T00:07:35;2.60;1.00
10566;DHT22;5331;48.148;16.326;2023-02-02T00:10:02;2.40;1.00
10566;DHT22;5331;48.148;16.326;2023-02-02T00:12:29;2.30;1.00
10566;DHT22;5331;48.148;16.326;2023-02-02T00:14:56;2.20;1.00
10566;DHT22;5331;48.148;16.326;2023-02-02T00:17:23;2.10;1.00
10566;DHT22;5331;48.148;16.326;2023-02-02T00:19:50;2.10;1.00
10566;DHT22;5331;48.148;16.326;2023-02-02T00:22:19;2.00;1.00
10566;DHT22;5331;48.148;16.326;2023-02-02T00:24:46;2.00;1.00
10566;DHT22;5331;48.148;16.326;2023-02-02T00:27:13;1.90;1.00
10566;DHT22;5331;48.148;16.326;2023-02-02T00:29:40;1.80;1.00
10566;DHT22;5331;48.148;16.326;2023-02-02T00:32:07;1.70;1.00
10566;DHT22;5331;48.148;16.326;2023-02-02T00:34:34;1.80;1.00
10566;DHT22;5331;48.148;16.326;2023-02-02T00:37:01;1.60;1.00
10566;DHT22;5331;48.148;16.326;2023-02-02T00:39:29;1.60;1.00
10566;DHT22;5331;48.148;16.326;2023-02-02T00:41:56;1.70;1.00
10566;DHT22;5331;48.148;16.326;2023-02-02T00:44:23;1.80;1.00
10566;DHT22;5331;48.148;16.326;2023-02-02T00:47:07;1.80;1.00
10566;DHT22;5331;48.148;16.326;2023-02-02T00:49:34;1.80;1.00
10566;DHT22;5331;48.148;16.326;2023-02-02T00:52:01;1.80;1.00
10566;DHT22;5331;48.148;16.326;2023-02-02T00:54:30;1.80;1.00
10566;DHT22;5331;48.148;16.326;2023-02-02T00:56:57;1.90;1.00
10566;DHT22;5331;48.148;16.326;2023-02-02T00:59:24;1.90;1.00
10566;DHT22;5331;48.148;16.326;2023-02-02T01:01:51;1.90;1.00
10566;DHT22;5331;48.148;16.326;2023-02-02T01:04:18;2.00;1.00
10566;DHT22;5331;48.148;16.326;2023-02-02T01:06:44;2.00;1.00
10566;DHT22;5331;48.148;16.326;2023-02-02T01:09:11;2.00;1.00
10566;DHT22;5331;48.148;16.326;2023-02-02T01:11:40;2.10;1.00
10566;DHT22;5331;48.148;16.326;2023-02-02T01:14:07;2.10;1.00
10566;DHT22;5331;48.148;16.326;2023-02-02T01:16:34;2.10;1.00
10566;DHT22;5331;48.148;16.326;2023-02-02T01:19:01;2.10;1.00
10566;DHT22;5331;48.148;16.326;2023-02-02T01:21:28;2.10;1.00
10566;DHT22;5331;48.148;16.326;2023-02-02T01:23:55;2.10;1.00
10566;DHT22;5331;48.148;16.326;2023-02-02T01:26:21;2.00;1.00
10566;DHT22;5331;48.148;16.326;2023-02-02T01:28:50;2.00;1.00
10566;DHT22;5331;48.148;16.326;2023-02-02T01:31:18;1.90;1.00
10566;DHT22;5331;48.148;16.326;2023-02-02T01:33:46;1.90;1.00
10566;DHT22;5331;48.148;16.326;2023-02-02T01:36:15;1.80;1.00
10566;DHT22;5331;48.148;16.326;2023-02-02T01:38:43;1.80;1.00
10566;DHT22;5331;48.148;16.326;2023-02-02T01:41:12;1.80;1.00
10566;DHT22;5331;48.148;16.326;2023-02-02T01:43:53;1.80;1.00
10566;DHT22;5331;48.148;16.326;2023-02-02T01:46:22;1.80;1.00
10566;DHT22;5331;48.148;16.326;2023-02-02T01:48:55;1.70;1.00
10566;DHT22;5331;48.148;16.326;2023-02-02T01:51:26;1.80;1.00
10566;DHT22;5331;48.148;16.326;2023-02-02T01:53:55;1.90;1.00
10566;DHT22;5331;48.148;16.326;2023-02-02T01:56:27;2.00;1.00
10566;DHT22;5331;48.148;16.326;2023-02-02T01:58:57;2.00;1.00
10566;DHT22;5331;48.148;16.326;2023-02-02T02:01:25;2.10;1.00
10566;DHT22;5331;48.148;16.326;2023-02-02T02:03:53;2.20;1.00
10566;DHT22;5331;48.148;16.326;2023-02-02T02:06:20;2.20;1.00
10566;DHT22;5331;48.148;16.326;2023-02-02T02:08:53;2.30;1.00
10566;DHT22;5331;48.148;16.326;2023-02-02T02:11:22;2.30;1.00
10566;DHT22;5331;48.148;16.326;2023-02-02T02:13:50;2.30;1.00
10566;DHT22;5331;48.148;16.326;2023-02-02T02:16:45;2.30;1.00
10566;DHT22;5331;48.148;16.326;2023-02-02T02:22:32;2.30;1.00
10566;DHT22;5331;48.148;16.326;2023-02-02T02:25:35;2.40;1.00
10566;DHT22;5331;48.148;16.326;2023-02-02T02:28:53;2.40;1.00
10566;DHT22;5331;48.148;16.326;2023-02-02T02:32:01;2.40;1.00
10566;DHT22;5331;48.148;16.326;2023-02-02T02:34:38;2.50;1.00
10566;DHT22;5331;48.148;16.326;2023-02-02T02:37:11;2.40;1.00
10566;DHT22;5331;48.148;16.326;2023-02-02T02:39:46;2.40;1.00
10566;DHT22;5331;48.148;16.326;2023-02-02T02:42:17;2.40;1.00
10566;DHT22;5331;48.148;16.326;2023-02-02T02:44:46;2.30;1.00
10566;DHT22;5331;48.148;16.326;2023-02-02T02:47:16;2.30;1.00
10566;DHT22;5331;48.148;16.326;2023-02-02T02:49:46;2.30;1.00
10566;DHT22;5331;48.148;16.326;2023-02-02T02:52:13;2.30;1.00
10566;DHT22;5331;48.148;16.326;2023-02-02T02:54:42;2.20;1.00
10566;DHT22;5331;48.148;16.326;2023-02-02T02:57:33;2.20;1.00
10566;DHT22;5331;48.148;16.326;2023-02-02T03:00:14;2.20;1.00
10566;DHT22;5331;48.148;16.326;2023-02-02T03:02:49;2.20;1.00
10566;DHT22;5331;48.148;16.326;2023-02-02T03:05:29;2.20;1.00
10566;DHT22;5331;48.148;16.326;2023-02-02T03:08:02;2.30;1.00
10566;DHT22;5331;48.148;16.326;2023-02-02T03:10:32;2.30;1.00
10566;DHT22;5331;48.148;16.326;2023-02-02T03:13:00;2.30;1.00
10566;DHT22;5331;48.148;16.326;2023-02-02T03:15:32;2.40;1.00
10566;DHT22;5331;48.148;16.326;2023-02-02T03:18:00;2.40;1.00
10566;DHT22;5331;48.148;16.326;2023-02-02T03:20:27;2.50;1.00
10566;DHT22;5331;48.148;16.326;2023-02-02T03:22:54;2.50;1.00
10566;DHT22;5331;48.148;16.326;2023-02-02T03:25:21;2.50;1.00
10566;DHT22;5331;48.148;16.326;2023-02-02T03:27:49;2.50;1.00
10566;DHT22;5331;48.148;16.326;2023-02-02T03:30:16;2.50;1.00
10566;DHT22;5331;48.148;16.326;2023-02-02T03:32:44;2.60;1.00
10566;DHT22;5331;48.148;16.326;2023-02-02T03:35:13;2.60;1.00
10566;DHT22;5331;48.148;16.326;2023-02-02T03:37:40;2.50;1.00
10566;DHT22;5331;48.148;16.326;2023-02-02T03:40:08;2.60;1.00
10566;DHT22;5331;48.148;16.326;2023-02-02T03:42:35;2.60;1.00
10566;DHT22;5331;48.148;16.326;2023-02-02T03:45:03;2.60;1.00
10566;DHT22;5331;48.148;16.326;2023-02-02T03:47:30;2.70;1.00
10566;DHT22;5331;48.148;16.326;2023-02-02T03:49:58;2.60;1.00
10566;DHT22;5331;48.148;16.326;2023-02-02T03:52:26;2.60;1.00
10566;DHT22;5331;48.148;16.326;2023-02-02T03:54:53;2.60;1.00
10566;DHT22;5331;48.148;16.326;2023-02-02T03:57:20;2.70;1.00
10566;DHT22;5331;48.148;16.326;2023-02-02T03:59:47;2.70;1.00
10566;DHT22;5331;48.148;16.326;2023-02-02T04:02:14;2.80;1.00
10566;DHT22;5331;48.148;16.326;2023-02-02T04:04:41;2.80;1.00
10566;DHT22;5331;48.148;16.326;2023-02-02T04:07:09;2.70;1.00
10566;DHT22;5331;48.148;16.326;2023-02-02T04:09:37;2.80;1.00
10566;DHT22;5331;48.148;16.326;2023-02-02T04:12:04;2.80;1.00
10566;DHT22;5331;48.148;16.326;2023-02-02T04:14:31;2.80;1.00
10566;DHT22;5331;48.148;16.326;2023-02-02T04:16:58;2.80;1.00
10566;DHT22;5331;48.148;16.326;2023-02-02T04:19:25;2.70;1.00
10566;DHT22;5331;48.148;16.326;2023-02-02T04:21:52;2.60;1.00
10566;DHT22;5331;48.148;16.326;2023-02-02T04:24:19;2.60;1.00
10566;DHT22;5331;48.148;16.326;2023-02-02T04:26:48;2.70;1.00
10566;DHT22;5331;48.148;16.326;2023-02-02T04:29:15;2.60;1.00
10566;DHT22;5331;48.148;16.326;2023-02-02T04:31:42;2.70;1.00
10566;DHT22;5331;48.148;16.326;2023-02-02T04:34:09;2.70;1.00
10566;DHT22;5331;48.148;16.326;2023-02-02T04:36:36;2.60;1.00
10566;DHT22;5331;48.148;16.326;2023-02-02T04:39:04;2.70;1.00
10566;DHT22;5331;48.148;16.326;2023-02-02T04:41:31;2.70;1.00
10566;DHT22;5331;48.148;16.326;2023-02-02T04:43:59;2.80;1.00
10566;DHT22;5331;48.148;16.326;2023-02-02T04:46:26;2.80;1.00
10566;DHT22;5331;48.148;16.326;2023-02-02T04:48:53;2.80;1.00
10566;DHT22;5331;48.148;16.326;2023-02-02T04:51:20;2.90;1.00
10566;DHT22;5331;48.148;16.326;2023-02-02T04:53:47;2.90;1.00
10566;DHT22;5331;48.148;16.326;2023-02-02T04:56:16;2.90;1.00
10566;DHT22;5331;48.148;16.326;2023-02-02T04:58:44;2.90;1.00
10566;DHT22;5331;48.148;16.326;2023-02-02T05:01:14;3.00;1.00
10566;DHT22;5331;48.148;16.326;2023-02-02T05:03:42;3.00;1.00
10566;DHT22;5331;48.148;16.326;2023-02-02T05:06:09;3.00;1.00
10566;DHT22;5331;48.148;16.326;2023-02-02T05:08:37;3.10;1.00
10566;DHT22;5331;48.148;16.326;2023-02-02T05:11:07;3.10;1.00
10566;DHT22;5331;48.148;16.326;2023-02-02T05:13:34;3.10;1.00
10566;DHT22;5331;48.148;16.326;2023-02-02T05:16:02;3.10;1.00
10566;DHT22;5331;48.148;16.326;2023-02-02T05:18:30;3.20;1.00
10566;DHT22;5331;48.148;16.326;2023-02-02T05:20:58;3.20;1.00
10566;DHT22;5331;48.148;16.326;2023-02-02T05:23:26;3.30;1.00
10566;DHT22;5331;48.148;16.326;2023-02-02T05:25:53;3.30;1.00
10566;DHT22;5331;48.148;16.326;2023-02-02T05:28:23;3.30;1.00
10566;DHT22;5331;48.148;16.326;2023-02-02T05:30:50;3.20;1.00
10566;DHT22;5331;48.148;16.326;2023-02-02T05:33:17;3.20;1.00
10566;DHT22;5331;48.148;16.326;2023-02-02T05:35:46;3.10;1.00
10566;DHT22;5331;48.148;16.326;2023-02-02T05:38:14;3.10;1.00
10566;DHT22;5331;48.148;16.326;2023-02-02T05:40:42;3.10;1.00
10566;DHT22;5331;48.148;16.326;2023-02-02T05:43:09;3.10;1.00
10566;DHT22;5331;48.148;16.326;2023-02-02T05:45:36;3.10;1.00
10566;DHT22;5331;48.148;16.326;2023-02-02T05:48:03;3.10;1.00
10566;DHT22;5331;48.148;16.326;2023-02-02T05:50:30;3.10;1.00
10566;DHT22;5331;48.148;16.326;2023-02-02T05:52:59;3.10;1.00
10566;DHT22;5331;48.148;16.326;2023-02-02T05:55:26;3.10;1.00
10566;DHT22;5331;48.148;16.326;2023-02-02T05:57:53;3.10;1.00
10566;DHT22;5331;48.148;16.326;2023-02-02T06:00:21;3.10;1.00
10566;DHT22;5331;48.148;16.326;2023-02-02T06:02:48;3.10;1.00
10566;DHT22;5331;48.148;16.326;2023-02-02T06:05:15;3.10;1.00
10566;DHT22;5331;48.148;16.326;2023-02-02T06:07:42;3.10;1.00
10566;DHT22;5331;48.148;16.326;2023-02-02T06:10:10;3.10;1.00
10566;DHT22;5331;48.148;16.326;2023-02-02T06:12:37;3.10;1.00
10566;DHT22;5331;48.148;16.326;2023-02-02T06:15:05;3.10;1.00
10566;DHT22;5331;48.148;16.326;2023-02-02T06:17:32;3.10;1.00
10566;DHT22;5331;48.148;16.326;2023-02-02T06:19:59;3.10;1.00
10566;DHT22;5331;48.148;16.326;2023-02-02T06:22:26;3.00;1.00
10566;DHT22;5331;48.148;16.326;2023-02-02T06:24:54;3.00;1.00
10566;DHT22;5331;48.148;16.326;2023-02-02T06:27:23;3.00;1.00
10566;DHT22;5331;48.148;16.326;2023-02-02T06:29:50;2.90;1.00
10566;DHT22;5331;48.148;16.326;2023-02-02T06:32:17;3.00;1.00
10566;DHT22;5331;48.148;16.326;2023-02-02T06:34:44;3.10;1.00
10566;DHT22;5331;48.148;16.326;2023-02-02T06:37:11;3.10;1.00
10566;DHT22;5331;48.148;16.326;2023-02-02T06:39:38;3.10;1.00
10566;DHT22;5331;48.148;16.326;2023-02-02T06:42:05;3.00;1.00
10566;DHT22;5331;48.148;16.326;2023-02-02T06:44:33;3.10;1.00
10566;DHT22;5331;48.148;16.326;2023-02-02T06:47:01;3.10;1.00
10566;DHT22;5331;48.148;16.326;2023-02-02T06:49:28;3.00;1.00
10566;DHT22;5331;48.148;16.326;2023-02-02T06:51:55;3.00;1.00
10566;DHT22;5331;48.148;16.326;2023-02-02T06:54:22;3.10;1.00
10566;DHT22;5331;48.148;16.326;2023-02-02T06:56:50;3.30;1.00
10566;DHT22;5331;48.148;16.326;2023-02-02T06:59:17;3.20;1.00
10566;DHT22;5331;48.148;16.326;2023-02-02T07:01:47;3.30;1.00
10566;DHT22;5331;48.148;16.326;2023-02-02T07:04:16;3.30;1.00
10566;DHT22;5331;48.148;16.326;2023-02-02T07:06:43;3.30;1.00
10566;DHT22;5331;48.148;16.326;2023-02-02T07:09:10;3.30;1.00
10566;DHT22;5331;48.148;16.326;2023-02-02T07:11:37;3.30;1.00
10566;DHT22;5331;48.148;16.326;2023-02-02T07:14:04;3.40;1.00
10566;DHT22;5331;48.148;16.326;2023-02-02T07:16:32;3.40;1.00
10566;DHT22;5331;48.148;16.326;2023-02-02T07:19:00;3.40;1.00
10566;DHT22;5331;48.148;16.326;2023-02-02T07:21:27;3.40;1.00
10566;DHT22;5331;48.148;16.326;2023-02-02T07:24:00;3.50;1.00
10566;DHT22;5331;48.148;16.326;2023-02-02T07:26:27;3.50;1.00
10566;DHT22;5331;48.148;16.326;2023-02-02T07:28:54;3.50;1.00
10566;DHT22;5331;48.148;16.326;2023-02-02T07:31:24;3.50;1.00
10566;DHT22;5331;48.148;16.326;2023-02-02T07:33:52;3.60;1.00
10566;DHT22;5331;48.148;16.326;2023-02-02T07:36:22;3.60;1.00
10566;DHT22;5331;48.148;16.326;2023-02-02T07:38:50;3.70;1.00
10566;DHT22;5331;48.148;16.326;2023-02-02T07:41:19;3.60;1.00
10566;DHT22;5331;48.148;16.326;2023-02-02T07:43:46;3.60;1.00
10566;DHT22;5331;48.148;16.326;2023-02-02T07:46:14;3.70;1.00
10566;DHT22;5331;48.148;16.326;2023-02-02T07:48:41;3.70;1.00
10566;DHT22;5331;48.148;16.326;2023-02-02T07:51:10;3.70;1.00
10566;DHT22;5331;48.148;16.326;2023-02-02T07:53:46;3.70;1.00
10566;DHT22;5331;48.148;16.326;2023-02-02T07:56:15;3.80;1.00
10566;DHT22;5331;48.148;16.326;2023-02-02T07:58:43;3.80;1.00
10566;DHT22;5331;48.148;16.326;2023-02-02T08:01:11;3.80;1.00
10566;DHT22;5331;48.148;16.326;2023-02-02T08:03:40;3.80;1.00
10566;DHT22;5331;48.148;16.326;2023-02-02T08:06:09;3.90;1.00
10566;DHT22;5331;48.148;16.326;2023-02-02T08:08:38;3.90;1.00
10566;DHT22;5331;48.148;16.326;2023-02-02T08:11:09;3.90;1.00
10566;DHT22;5331;48.148;16.326;2023-02-02T08:13:39;3.90;1.00
10566;DHT22;5331;48.148;16.326;2023-02-02T08:16:10;3.90;1.00
10566;DHT22;5331;48.148;16.326;2023-02-02T08:18:38;3.90;1.00
10566;DHT22;5331;48.148;16.326;2023-02-02T08:21:06;3.90;1.00
10566;DHT22;5331;48.148;16.326;2023-02-02T08:23:34;3.90;1.00
10566;DHT22;5331;48.148;16.326;2023-02-02T08:26:10;3.90;1.00
10566;DHT22;5331;48.148;16.326;2023-02-02T08:28:39;3.90;1.00
10566;DHT22;5331;48.148;16.326;2023-02-02T08:31:08;4.00;1.00
10566;DHT22;5331;48.148;16.326;2023-02-02T08:33:36;4.00;1.00
10566;DHT22;5331;48.148;16.326;2023-02-02T08:36:06;4.10;1.00
10566;DHT22;5331;48.148;16.326;2023-02-02T08:38:33;4.10;1.00
10566;DHT22;5331;48.148;16.326;2023-02-02T08:41:04;4.10;1.00
10566;DHT22;5331;48.148;16.326;2023-02-02T08:43:33;4.10;1.00
10566;DHT22;5331;48.148;16.326;2023-02-02T08:46:02;4.10;1.00
10566;DHT22;5331;48.148;16.326;2023-02-02T08:48:29;4.20;1.00
10566;DHT22;5331;48.148;16.326;2023-02-02T08:50:57;4.20;1.00
10566;DHT22;5331;48.148;16.326;2023-02-02T08:53:25;4.30;1.00
10566;DHT22;5331;48.148;16.326;2023-02-02T08:55:57;4.30;1.00
10566;DHT22;5331;48.148;16.326;2023-02-02T08:58:25;4.30;1.00
10566;DHT22;5331;48.148;16.326;2023-02-02T09:00:54;4.30;1.00
10566;DHT22;5331;48.148;16.326;2023-02-02T09:03:21;4.30;1.00
10566;DHT22;5331;48.148;16.326;2023-02-02T09:05:48;4.20;1.00
10566;DHT22;5331;48.148;16.326;2023-02-02T09:08:15;4.30;1.00
10566;DHT22;5331;48.148;16.326;2023-02-02T09:10:42;4.30;1.00
10566;DHT22;5331;48.148;16.326;2023-02-02T09:13:09;4.30;1.00
10566;DHT22;5331;48.148;16.326;2023-02-02T09:15:36;4.20;1.00
10566;DHT22;5331;48.148;16.326;2023-02-02T09:18:04;4.20;1.00
10566;DHT22;5331;48.148;16.326;2023-02-02T09:20:32;4.20;1.00
10566;DHT22;5331;48.148;16.326;2023-02-02T09:22:59;4.30;1.00
10566;DHT22;5331;48.148;16.326;2023-02-02T09:25:26;4.30;1.00
10566;DHT22;5331;48.148;16.326;2023-02-02T09:27:53;4.30;1.00
10566;DHT22;5331;48.148;16.326;2023-02-02T09:30:20;4.30;1.00
10566;DHT22;5331;48.148;16.326;2023-02-02T09:32:48;4.40;1.00
10566;DHT22;5331;48.148;16.326;2023-02-02T09:35:19;4.40;1.00
10566;DHT22;5331;48.148;16.326;2023-02-02T09:37:46;4.40;1.00
10566;DHT22;5331;48.148;16.326;2023-02-02T09:40:15;4.40;1.00
10566;DHT22;5331;48.148;16.326;2023-02-02T09:42:53;4.40;1.00
10566;DHT22;5331;48.148;16.326;2023-02-02T09:45:27;4.50;1.00
10566;DHT22;5331;48.148;16.326;2023-02-02T09:48:01;4.50;1.00
10566;DHT22;5331;48.148;16.326;2023-02-02T09:50:41;4.50;1.00
10566;DHT22;5331;48.148;16.326;2023-02-02T09:53:18;4.50;1.00
10566;DHT22;5331;48.148;16.326;2023-02-02T09:55:48;4.50;1.00
10566;DHT22;5331;48.148;16.326;2023-02-02T09:58:19;4.50;1.00
10566;DHT22;5331;48.148;16.326;2023-02-02T10:00:54;4.60;1.00
10566;DHT22;5331;48.148;16.326;2023-02-02T10:03:25;4.60;1.00
10566;DHT22;5331;48.148;16.326;2023-02-02T10:06:01;4.60;1.00
10566;DHT22;5331;48.148;16.326;2023-02-02T10:08:33;4.70;1.00
10566;DHT22;5331;48.148;16.326;2023-02-02T10:11:08;4.60;1.00
10566;DHT22;5331;48.148;16.326;2023-02-02T10:13:38;4.60;1.00
10566;DHT22;5331;48.148;16.326;2023-02-02T10:16:12;4.70;1.00
10566;DHT22;5331;48.148;16.326;2023-02-02T10:18:45;4.70;1.00
10566;DHT22;5331;48.148;16.326;2023-02-02T10:21:22;4.70;1.00
10566;DHT22;5331;48.148;16.326;2023-02-02T10:23:51;4.80;1.00
10566;DHT22;5331;48.148;16.326;2023-02-02T10:26:21;4.80;1.00
10566;DHT22;5331;48.148;16.326;2023-02-02T10:28:57;4.80;1.00
10566;DHT22;5331;48.148;16.326;2023-02-02T10:31:40;4.90;1.00
10566;DHT22;5331;48.148;16.326;2023-02-02T10:34:14;5.00;1.00
10566;DHT22;5331;48.148;16.326;2023-02-02T10:37:19;5.10;1.00
10566;DHT22;5331;48.148;16.326;2023-02-02T10:40:01;5.40;1.00
10566;DHT22;5331;48.148;16.326;2023-02-02T10:42:38;5.40;1.00
10566;DHT22;5331;48.148;16.326;2023-02-02T10:45:13;5.50;1.00
10566;DHT22;5331;48.148;16.326;2023-02-02T10:47:41;5.60;1.00
10566;DHT22;5331;48.148;16.326;2023-02-02T10:50:16;5.60;1.00
10566;DHT22;5331;48.148;16.326;2023-02-02T10:52:48;5.60;1.00
10566;DHT22;5331;48.148;16.326;2023-02-02T10:55:24;5.60;1.00
10566;DHT22;5331;48.148;16.326;2023-02-02T10:58:10;5.60;1.00
10566;DHT22;5331;48.148;16.326;2023-02-02T11:00:42;5.50;1.00
10566;DHT22;5331;48.148;16.326;2023-02-02T11:03:14;5.40;1.00
10566;DHT22;5331;48.148;16.326;2023-02-02T11:05:41;5.30;1.00
10566;DHT22;5331;48.148;16.326;2023-02-02T11:08:29;5.20;1.00
10566;DHT22;5331;48.148;16.326;2023-02-02T11:10:57;5.20;1.00
10566;DHT22;5331;48.148;16.326;2023-02-02T11:13:29;5.20;1.00
10566;DHT22;5331;48.148;16.326;2023-02-02T11:16:27;5.10;1.00
10566;DHT22;5331;48.148;16.326;2023-02-02T11:18:55;5.00;1.00
10566;DHT22;5331;48.148;16.326;2023-02-02T11:21:25;5.00;1.00
10566;DHT22;5331;48.148;16.326;2023-02-02T11:23:59;5.10;1.00
10566;DHT22;5331;48.148;16.326;2023-02-02T11:26:40;5.00;1.00
10566;DHT22;5331;48.148;16.326;2023-02-02T11:29:13;4.90;1.00
10566;DHT22;5331;48.148;16.326;2023-02-02T11:31:43;4.90;1.00
10566;DHT22;5331;48.148;16.326;2023-02-02T11:34:17;4.90;1.00
10566;DHT22;5331;48.148;16.326;2023-02-02T11:36:57;4.90;1.00
10566;DHT22;5331;48.148;16.326;2023-02-02T11:39:27;4.90;1.00
10566;DHT22;5331;48.148;16.326;2023-02-02T11:42:05;4.80;1.00
10566;DHT22;5331;48.148;16.326;2023-02-02T11:44:33;4.80;1.00
10566;DHT22;5331;48.148;16.326;2023-02-02T11:47:02;4.80;1.00
10566;DHT22;5331;48.148;16.326;2023-02-02T11:49:36;4.80;1.00
10566;DHT22;5331;48.148;16.326;2023-02-02T11:52:05;4.80;1.00
10566;DHT22;5331;48.148;16.326;2023-02-02T11:54:45;4.80;1.00
10566;DHT22;5331;48.148;16.326;2023-02-02T11:57:17;4.80;1.00
10566;DHT22;5331;48.148;16.326;2023-02-02T11:59:46;4.90;1.00
10566;DHT22;5331;48.148;16.326;2023-02-02T12:07:56;4.90;1.00
10566;DHT22;5331;48.148;16.326;2023-02-02T12:10:26;5.00;1.00
10566;DHT22;5331;48.148;16.326;2023-02-02T12:12:59;4.90;1.00
10566;DHT22;5331;48.148;16.326;2023-02-02T12:15:38;5.00;1.00
10566;DHT22;5331;48.148;16.326;2023-02-02T12:18:31;4.90;1.00
10566;DHT22;5331;48.148;16.326;2023-02-02T12:21:04;4.90;1.00
10566;DHT22;5331;48.148;16.326;2023-02-02T12:23:47;5.00;1.00
10566;DHT22;5331;48.148;16.326;2023-02-02T12:26:23;5.00;1.00
10566;DHT22;5331;48.148;16.326;2023-02-02T12:29:23;5.00;1.00
10566;DHT22;5331;48.148;16.326;2023-02-02T12:32:02;5.00;1.00
10566;DHT22;5331;48.148;16.326;2023-02-02T12:34:42;5.00;1.00
10566;DHT22;5331;48.148;16.326;2023-02-02T12:37:22;5.10;1.00
10566;DHT22;5331;48.148;16.326;2023-02-02T12:40:00;5.10;1.00
10566;DHT22;5331;48.148;16.326;2023-02-02T12:42:57;5.20;1.00
10566;DHT22;5331;48.148;16.326;2023-02-02T12:45:50;5.20;1.00
10566;DHT22;5331;48.148;16.326;2023-02-02T12:48:31;5.20;1.00
10566;DHT22;5331;48.148;16.326;2023-02-02T12:51:14;5.10;1.00
10566;DHT22;5331;48.148;16.326;2023-02-02T12:54:17;5.10;1.00
10566;DHT22;5331;48.148;16.326;2023-02-02T12:56:52;5.00;1.00
10566;DHT22;5331;48.148;16.326;2023-02-02T13:02:24;5.00;1.00
10566;DHT22;5331;48.148;16.326;2023-02-02T13:05:10;5.00;1.00
10566;DHT22;5331;48.148;16.326;2023-02-02T13:07:40;5.10;1.00
10566;DHT22;5331;48.148;16.326;2023-02-02T13:10:23;5.10;1.00
10566;DHT22;5331;48.148;16.326;2023-02-02T13:12:54;5.00;1.00
10566;DHT22;5331;48.148;16.326;2023-02-02T13:15:30;5.00;1.00
10566;DHT22;5331;48.148;16.326;2023-02-02T13:18:01;5.00;1.00
10566;DHT22;5331;48.148;16.326;2023-02-02T13:20:40;5.00;1.00
10566;DHT22;5331;48.148;16.326;2023-02-02T13:23:14;4.90;1.00
10566;DHT22;5331;48.148;16.326;2023-02-02T13:25:47;4.90;1.00
10566;DHT22;5331;48.148;16.326;2023-02-02T13:28:31;4.90;1.00
10566;DHT22;5331;48.148;16.326;2023-02-02T13:31:02;4.90;1.00
10566;DHT22;5331;48.148;16.326;2023-02-02T13:33:34;4.90;1.00
10566;DHT22;5331;48.148;16.326;2023-02-02T13:36:07;4.90;1.00
10566;DHT22;5331;48.148;16.326;2023-02-02T13:38:35;4.90;1.00
10566;DHT22;5331;48.148;16.326;2023-02-02T13:41:08;5.00;1.00
10566;DHT22;5331;48.148;16.326;2023-02-02T13:43:45;4.90;1.00
10566;DHT22;5331;48.148;16.326;2023-02-02T13:46:23;4.90;1.00
10566;DHT22;5331;48.148;16.326;2023-02-02T13:48:59;4.90;1.00
10566;DHT22;5331;48.148;16.326;2023-02-02T13:51:38;4.90;1.00
10566;DHT22;5331;48.148;16.326;2023-02-02T13:57:23;4.90;1.00
10566;DHT22;5331;48.148;16.326;2023-02-02T14:00:00;4.80;1.00
10566;DHT22;5331;48.148;16.326;2023-02-02T14:02:33;4.80;1.00
10566;DHT22;5331;48.148;16.326;2023-02-02T14:05:05;4.70;1.00
10566;DHT22;5331;48.148;16.326;2023-02-02T14:07:40;4.70;1.00
10566;DHT22;5331;48.148;16.326;2023-02-02T14:10:22;4.70;1.00
10566;DHT22;5331;48.148;16.326;2023-02-02T14:12:50;4.80;1.00
10566;DHT22;5331;48.148;16.326;2023-02-02T14:15:18;4.70;1.00
10566;DHT22;5331;48.148;16.326;2023-02-02T14:17:55;4.70;1.00
10566;DHT22;5331;48.148;16.326;2023-02-02T14:20:45;4.60;1.00
10566;DHT22;5331;48.148;16.326;2023-02-02T14:23:51;4.70;1.00
10566;DHT22;5331;48.148;16.326;2023-02-02T14:26:43;4.60;1.00
10566;DHT22;5331;48.148;16.326;2023-02-02T14:29:35;4.60;1.00
10566;DHT22;5331;48.148;16.326;2023-02-02T14:32:28;4.60;1.00
10566;DHT22;5331;48.148;16.326;2023-02-02T14:38:11;4.50;1.00
10566;DHT22;5331;48.148;16.326;2023-02-02T14:40:46;4.50;1.00
10566;DHT22;5331;48.148;16.326;2023-02-02T14:43:22;4.60;1.00
10566;DHT22;5331;48.148;16.326;2023-02-02T14:46:23;4.70;1.00
10566;DHT22;5331;48.148;16.326;2023-02-02T14:49:10;4.80;1.00
10566;DHT22;5331;48.148;16.326;2023-02-02T14:51:55;4.70;1.00
10566;DHT22;5331;48.148;16.326;2023-02-02T14:54:31;4.60;1.00
10566;DHT22;5331;48.148;16.326;2023-02-02T14:57:01;4.50;1.00
10566;DHT22;5331;48.148;16.326;2023-02-02T14:59:33;4.60;1.00
10566;DHT22;5331;48.148;16.326;2023-02-02T15:02:16;4.40;1.00
10566;DHT22;5331;48.148;16.326;2023-02-02T15:04:45;4.40;1.00
10566;DHT22;5331;48.148;16.326;2023-02-02T15:07:37;4.40;1.00
10566;DHT22;5331;48.148;16.326;2023-02-02T15:10:55;4.30;1.00
10566;DHT22;5331;48.148;16.326;2023-02-02T15:13:24;4.30;1.00
10566;DHT22;5331;48.148;16.326;2023-02-02T15:16:06;4.30;1.00
10566;DHT22;5331;48.148;16.326;2023-02-02T15:18:40;4.30;1.00
10566;DHT22;5331;48.148;16.326;2023-02-02T15:21:15;4.30;1.00
10566;DHT22;5331;48.148;16.326;2023-02-02T15:23:48;4.30;1.00
10566;DHT22;5331;48.148;16.326;2023-02-02T15:26:20;4.30;1.00
10566;DHT22;5331;48.148;16.326;2023-02-02T15:28:53;4.30;1.00
10566;DHT22;5331;48.148;16.326;2023-02-02T15:31:28;4.20;1.00
10566;DHT22;5331;48.148;16.326;2023-02-02T15:34:01;4.20;1.00
10566;DHT22;5331;48.148;16.326;2023-02-02T15:36:31;4.20;1.00
10566;DHT22;5331;48.148;16.326;2023-02-02T15:39:03;4.20;1.00
10566;DHT22;5331;48.148;16.326;2023-02-02T15:41:36;4.20;1.00
10566;DHT22;5331;48.148;16.326;2023-02-02T15:44:19;4.20;1.00
10566;DHT22;5331;48.148;16.326;2023-02-02T15:46:48;4.20;1.00
10566;DHT22;5331;48.148;16.326;2023-02-02T15:49:27;4.10;1.00
10566;DHT22;5331;48.148;16.326;2023-02-02T15:51:57;4.10;1.00
10566;DHT22;5331;48.148;16.326;2023-02-02T15:54:29;4.00;1.00
10566;DHT22;5331;48.148;16.326;2023-02-02T15:56:57;4.00;1.00
10566;DHT22;5331;48.148;16.326;2023-02-02T15:59:27;4.00;1.00
10566;DHT22;5331;48.148;16.326;2023-02-02T16:02:06;3.90;1.00
10566;DHT22;5331;48.148;16.326;2023-02-02T16:04:42;3.90;1.00
10566;DHT22;5331;48.148;16.326;2023-02-02T16:07:11;3.80;1.00
10566;DHT22;5331;48.148;16.326;2023-02-02T16:09:41;3.80;1.00
10566;DHT22;5331;48.148;16.326;2023-02-02T16:12:15;3.80;1.00
10566;DHT22;5331;48.148;16.326;2023-02-02T16:14:45;3.70;1.00
10566;DHT22;5331;48.148;16.326;2023-02-02T16:17:19;3.70;1.00
10566;DHT22;5331;48.148;16.326;2023-02-02T16:19:48;3.70;1.00
10566;DHT22;5331;48.148;16.326;2023-02-02T16:22:17;3.60;1.00
10566;DHT22;5331;48.148;16.326;2023-02-02T16:24:52;3.60;1.00
10566;DHT22;5331;48.148;16.326;2023-02-02T16:27:22;3.60;1.00
10566;DHT22;5331;48.148;16.326;2023-02-02T16:29:51;3.50;1.00
10566;DHT22;5331;48.148;16.326;2023-02-02T16:32:26;3.40;1.00
10566;DHT22;5331;48.148;16.326;2023-02-02T16:34:54;3.50;1.00
10566;DHT22;5331;48.148;16.326;2023-02-02T16:37:23;3.50;1.00
10566;DHT22;5331;48.148;16.326;2023-02-02T16:39:55;3.50;1.00
10566;DHT22;5331;48.148;16.326;2023-02-02T16:42:25;3.40;1.00
10566;DHT22;5331;48.148;16.326;2023-02-02T16:44:53;3.50;1.00
10566;DHT22;5331;48.148;16.326;2023-02-02T16:47:35;3.40;1.00
10566;DHT22;5331;48.148;16.326;2023-02-02T16:50:26;3.40;1.00